Time;durP1;ratioP1;P1;durP2;ratioP2;P2;SDS_P1;SDS_P2;PMS_P1;PMS_P2;Temp;Humidity;BMP_temperature;BMP_pressure;BME280_temperature;BME280_humidity;BME280_pressure;Samples;Min_cycle;Max_cycle;Signal;HPM_P1;HPM_P2
2020/12/08 00:00:27;;;;;;;5.05;3.10;;;;;;;;;;5114167;28;20207;-51
2020/12/08 00:02:53;;;;;;;4.45;3.25;;;;;;;;;;5094163;28;20205;-51
2020/12/08 00:05:20;;;;;;;4.93;3.22;;;;;;;;;;5078330;28;20484;-51
2020/12/08 00:07:46;;;;;;;4.88;2.75;;;;;;;;;;5086824;28;20256;-51
2020/12/08 00:10:18;;;;;;;4.18;3.10;;;;;;;;;;5101287;28;20170;-51
2020/12/08 00:12:44;;;;;;;3.80;2.65;;;;;;;;;;5076624;28;20178;-51
2020/12/08 00:15:10;;;;;;;3.90;3.20;;;;;;;;;;5098572;28;20196;-51
2020/12/08 00:17:36;;;;;;;3.88;2.75;;;;;;;;;;5092109;28;20484;-51
2020/12/08 00:20:02;;;;;;;4.35;2.85;;;;;;;;;;5078968;28;20191;-51
2020/12/08 00:22:28;;;;;;;3.67;2.85;;;;;;;;;;5092545;28;20182;-51
2020/12/08 00:24:54;;;;;;;4.93;2.67;;;;;;;;;;5098379;28;20178;-51
2020/12/08 00:27:21;;;;;;;5.88;2.88;;;;;;;;;;5098539;28;20219;-51
2020/12/08 00:29:47;;;;;;;3.60;2.92;;;;;;;;;;5099142;28;20200;-51
2020/12/08 00:32:13;;;;;;;4.53;2.38;;;;;;;;;;5084126;28;20228;-51
2020/12/08 00:34:39;;;;;;;3.05;2.33;;;;;;;;;;5078720;28;20175;-51
2020/12/08 00:37:05;;;;;;;5.88;2.67;;;;;;;;;;5081127;28;20174;-51
2020/12/08 00:39:32;;;;;;;3.50;2.30;;;;;;;;;;5091637;28;20182;-51
2020/12/08 00:41:58;;;;;;;3.22;2.70;;;;;;;;;;5096919;28;20220;-52
2020/12/08 00:44:24;;;;;;;3.90;2.60;;;;;;;;;;5079870;28;20582;-51
2020/12/08 00:46:51;;;;;;;4.22;2.75;;;;;;;;;;5100842;28;20174;-51
2020/12/08 00:49:17;;;;;;;2.80;2.40;;;;;;;;;;5085380;28;20488;-51
2020/12/08 00:51:43;;;;;;;4.07;2.85;;;;;;;;;;5098858;28;20166;-51
2020/12/08 00:54:09;;;;;;;3.88;2.88;;;;;;;;;;5079572;28;20521;-51
2020/12/08 00:56:35;;;;;;;4.47;2.60;;;;;;;;;;5090791;28;20179;-51
2020/12/08 00:59:02;;;;;;;4.10;2.92;;;;;;;;;;5096579;28;20269;-51
2020/12/08 01:01:28;;;;;;;5.85;2.92;;;;;;;;;;5089736;28;20262;-51
2020/12/08 01:03:54;;;;;;;3.03;2.40;;;;;;;;;;5091749;28;20243;-51
2020/12/08 01:06:20;;;;;;;3.42;2.63;;;;;;;;;;5097779;28;20181;-51
2020/12/08 01:08:46;;;;;;;2.70;2.47;;;;;;;;;;5096405;28;20177;-51
2020/12/08 01:11:12;;;;;;;4.18;2.50;;;;;;;;;;5098464;28;20200;-51
2020/12/08 01:13:38;;;;;;;3.50;2.17;;;;;;;;;;5096588;28;20189;-51
2020/12/08 01:16:05;;;;;;;3.28;2.30;;;;;;;;;;5096869;28;20182;-51
2020/12/08 01:18:32;;;;;;;3.65;2.60;;;;;;;;;;5098588;28;20170;-51
2020/12/08 01:20:58;;;;;;;2.60;2.33;;;;;;;;;;5097966;28;20478;-51
2020/12/08 01:23:24;;;;;;;2.75;2.10;;;;;;;;;;5086997;28;20287;-51
2020/12/08 01:25:51;;;;;;;3.42;2.63;;;;;;;;;;5097147;28;20181;-51
2020/12/08 01:28:20;;;;;;;3.88;2.60;;;;;;;;;;5085554;28;20554;-51
2020/12/08 01:30:48;;;;;;;2.45;2.20;;;;;;;;;;5078163;28;20503;-51
2020/12/08 01:33:14;;;;;;;2.72;1.90;;;;;;;;;;5079163;28;20190;-52
2020/12/08 01:35:40;;;;;;;3.08;2.40;;;;;;;;;;5081324;28;20252;-51
2020/12/08 01:38:06;;;;;;;2.65;2.28;;;;;;;;;;5083814;28;20262;-51
2020/12/08 01:40:32;;;;;;;3.88;2.35;;;;;;;;;;5077876;28;20273;-51
2020/12/08 01:42:58;;;;;;;2.78;2.33;;;;;;;;;;5083568;28;20208;-51
2020/12/08 01:45:25;;;;;;;3.17;2.13;;;;;;;;;;5096736;28;20256;-51
2020/12/08 01:47:51;;;;;;;3.65;2.30;;;;;;;;;;5084615;28;20205;-51
2020/12/08 01:50:18;;;;;;;2.67;2.22;;;;;;;;;;5092612;28;20173;-51
2020/12/08 01:52:44;;;;;;;2.90;2.15;;;;;;;;;;5096584;28;20618;-51
2020/12/08 01:55:13;;;;;;;2.72;2.42;;;;;;;;;;5097440;28;20533;-51
2020/12/08 01:57:39;;;;;;;2.67;1.98;;;;;;;;;;5097421;28;20265;-51
2020/12/08 02:00:05;;;;;;;3.03;2.35;;;;;;;;;;5097621;28;20505;-51
2020/12/08 02:02:31;;;;;;;2.30;2.10;;;;;;;;;;5088257;28;20552;-51
2020/12/08 02:04:57;;;;;;;2.42;1.95;;;;;;;;;;5083291;28;20199;-51
2020/12/08 02:07:23;;;;;;;2.20;2.00;;;;;;;;;;5077647;28;20206;-51
2020/12/08 02:09:49;;;;;;;2.28;2.08;;;;;;;;;;5104549;28;20202;-51
2020/12/08 02:12:15;;;;;;;2.50;2.13;;;;;;;;;;5097539;28;20245;-51
2020/12/08 02:14:41;;;;;;;2.50;2.30;;;;;;;;;;5095852;28;20260;-51
2020/12/08 02:17:07;;;;;;;2.30;2.08;;;;;;;;;;5095985;28;20584;-51
2020/12/08 02:19:33;;;;;;;2.35;2.05;;;;;;;;;;5086634;28;20178;-51
2020/12/08 02:21:59;;;;;;;2.75;2.13;;;;;;;;;;5077066;28;20200;-51
2020/12/08 02:24:26;;;;;;;2.63;2.20;;;;;;;;;;5076478;28;20209;-51
2020/12/08 02:26:52;;;;;;;2.13;1.92;;;;;;;;;;5088460;28;20260;-51
2020/12/08 02:29:18;;;;;;;2.42;2.20;;;;;;;;;;5096977;28;20560;-51
2020/12/08 02:31:44;;;;;;;2.17;2.00;;;;;;;;;;5096378;28;20182;-51
2020/12/08 02:34:10;;;;;;;3.30;2.30;;;;;;;;;;5096286;28;20553;-51
2020/12/08 02:36:36;;;;;;;2.17;2.00;;;;;;;;;;5087647;28;20197;-51
2020/12/08 02:39:02;;;;;;;2.97;2.33;;;;;;;;;;5094270;28;20190;-52
2020/12/08 02:41:28;;;;;;;2.05;1.95;;;;;;;;;;5096811;28;20454;-51
2020/12/08 02:43:53;;;;;;;2.95;2.17;;;;;;;;;;5095964;28;20205;-51
2020/12/08 02:46:21;;;;;;;2.17;1.92;;;;;;;;;;5087753;28;20216;-51
2020/12/08 02:48:47;;;;;;;2.15;1.95;;;;;;;;;;5080435;28;20174;-51
2020/12/08 02:51:17;;;;;;;2.55;2.00;;;;;;;;;;5083161;28;20170;-51
2020/12/08 02:53:44;;;;;;;2.30;1.95;;;;;;;;;;5086094;28;20177;-51
2020/12/08 02:56:10;;;;;;;2.30;1.90;;;;;;;;;;5076084;28;20171;-51
2020/12/08 02:58:36;;;;;;;2.42;2.22;;;;;;;;;;5091288;28;20262;-51
2020/12/08 03:01:02;;;;;;;2.08;1.88;;;;;;;;;;5085660;28;20269;-51
2020/12/08 03:03:28;;;;;;;2.58;2.05;;;;;;;;;;5076235;28;20248;-51
2020/12/08 03:05:53;;;;;;;2.28;2.08;;;;;;;;;;5086329;28;20417;-51
2020/12/08 03:08:19;;;;;;;2.03;1.83;;;;;;;;;;5095838;28;20170;-51
2020/12/08 03:10:45;;;;;;;2.22;2.00;;;;;;;;;;5096345;28;20186;-51
2020/12/08 03:13:12;;;;;;;2.65;2.28;;;;;;;;;;5092842;28;20205;-51
2020/12/08 03:15:38;;;;;;;2.00;1.80;;;;;;;;;;5075538;28;20170;-51
2020/12/08 03:18:04;;;;;;;2.33;1.90;;;;;;;;;;5076107;28;20553;-51
2020/12/08 03:20:30;;;;;;;2.13;1.92;;;;;;;;;;5077875;28;20182;-51
2020/12/08 03:22:56;;;;;;;2.53;2.30;;;;;;;;;;5095382;28;20209;-51
2020/12/08 03:25:22;;;;;;;3.17;2.00;;;;;;;;;;5096045;28;20162;-51
2020/12/08 03:27:48;;;;;;;2.20;1.95;;;;;;;;;;5077266;28;20542;-51
2020/12/08 03:30:14;;;;;;;2.15;1.95;;;;;;;;;;5096501;28;20170;-51
2020/12/08 03:32:40;;;;;;;1.92;1.77;;;;;;;;;;5095565;28;20184;-51
2020/12/08 03:35:06;;;;;;;2.13;1.90;;;;;;;;;;5095740;28;20594;-51
2020/12/08 03:37:32;;;;;;;1.98;1.88;;;;;;;;;;5088787;28;20564;-51
2020/12/08 03:39:58;;;;;;;2.17;1.90;;;;;;;;;;5077750;28;20245;-51
2020/12/08 03:42:23;;;;;;;2.53;2.22;;;;;;;;;;5084688;28;20261;-51
2020/12/08 03:44:49;;;;;;;2.22;1.92;;;;;;;;;;5099153;28;20206;-51
2020/12/08 03:47:15;;;;;;;2.42;2.03;;;;;;;;;;5097037;28;20174;-51
2020/12/08 03:49:41;;;;;;;2.03;1.83;;;;;;;;;;5079890;28;20170;-51
2020/12/08 03:52:07;;;;;;;2.03;1.90;;;;;;;;;;5081992;28;20212;-51
2020/12/08 03:54:33;;;;;;;2.15;2.00;;;;;;;;;;5099453;28;20178;-51
2020/12/08 03:56:59;;;;;;;2.35;2.15;;;;;;;;;;5100041;28;20189;-51
2020/12/08 03:59:25;;;;;;;2.78;1.92;;;;;;;;;;5100228;28;20178;-51
2020/12/08 04:01:52;;;;;;;2.05;1.85;;;;;;;;;;5098625;28;20279;-51
2020/12/08 04:04:18;;;;;;;1.90;1.70;;;;;;;;;;5098608;28;20202;-51
2020/12/08 04:06:44;;;;;;;2.00;1.90;;;;;;;;;;5100067;28;20166;-51
2020/12/08 04:09:10;;;;;;;1.88;1.77;;;;;;;;;;5099595;28;20219;-51
2020/12/08 04:11:37;;;;;;;2.20;2.00;;;;;;;;;;5098927;28;20178;-51
2020/12/08 04:14:03;;;;;;;2.83;1.73;;;;;;;;;;5079838;28;20182;-51
2020/12/08 04:16:30;;;;;;;1.75;1.65;;;;;;;;;;5081148;28;20187;-51
2020/12/08 04:18:56;;;;;;;1.85;1.75;;;;;;;;;;5082772;28;20182;-51
2020/12/08 04:21:26;;;;;;;1.90;1.80;;;;;;;;;;5079025;28;20258;-51
2020/12/08 04:24:02;;;;;;;2.28;2.08;;;;;;;;;;5083753;28;20236;-51
2020/12/08 04:26:28;;;;;;;2.20;2.00;;;;;;;;;;5092147;28;20246;-51
2020/12/08 04:28:54;;;;;;;2.42;2.15;;;;;;;;;;5079136;28;20202;-51
2020/12/08 04:31:20;;;;;;;2.00;1.80;;;;;;;;;;5090988;28;20174;-51
2020/12/08 04:33:46;;;;;;;1.95;1.75;;;;;;;;;;5096941;28;20556;-51
2020/12/08 04:36:14;;;;;;;2.20;2.00;;;;;;;;;;5098955;28;20170;-51
2020/12/08 04:38:41;;;;;;;2.13;1.80;;;;;;;;;;5098382;28;20186;-51
2020/12/08 04:41:07;;;;;;;2.10;1.90;;;;;;;;;;5098535;28;20178;-51
2020/12/08 04:43:33;;;;;;;1.65;1.55;;;;;;;;;;5083565;28;20221;-51
2020/12/08 04:46:00;;;;;;;2.22;1.60;;;;;;;;;;5077579;28;20555;-51
2020/12/08 04:48:27;;;;;;;1.80;1.70;;;;;;;;;;5095739;28;20186;-51
2020/12/08 04:50:53;;;;;;;2.55;2.10;;;;;;;;;;5098873;28;20261;-51
2020/12/08 04:53:21;;;;;;;2.00;1.90;;;;;;;;;;5086062;28;20619;-51
2020/12/08 04:55:47;;;;;;;1.60;1.50;;;;;;;;;;5092172;28;20237;-51
2020/12/08 04:58:13;;;;;;;2.20;2.00;;;;;;;;;;5098080;28;20189;-51
2020/12/08 05:00:40;;;;;;;1.70;1.58;;;;;;;;;;5081368;28;20214;-51
2020/12/08 05:03:06;;;;;;;2.10;1.90;;;;;;;;;;5098159;28;20189;-51
2020/12/08 05:05:38;;;;;;;2.10;1.90;;;;;;;;;;5095528;28;20177;-51
2020/12/08 05:08:13;;;;;;;2.15;1.95;;;;;;;;;;5078612;28;20171;-51
2020/12/08 05:10:40;;;;;;;1.60;1.50;;;;;;;;;;5078311;28;20171;-51
2020/12/08 05:13:15;;;;;;;1.88;1.75;;;;;;;;;;5078378;28;20228;-51
2020/12/08 05:15:41;;;;;;;2.00;1.90;;;;;;;;;;5078681;28;20507;-51
2020/12/08 05:18:08;;;;;;;2.17;1.80;;;;;;;;;;5088310;28;20261;-51
2020/12/08 05:20:34;;;;;;;2.00;1.90;;;;;;;;;;5079559;28;20189;-51
2020/12/08 05:23:00;;;;;;;1.90;1.80;;;;;;;;;;5077742;28;20210;-51
2020/12/08 05:25:28;;;;;;;2.40;1.98;;;;;;;;;;5080715;28;20231;-51
2020/12/08 05:27:58;;;;;;;2.38;1.88;;;;;;;;;;5098467;28;20162;-51
2020/12/08 05:30:24;;;;;;;3.22;1.92;;;;;;;;;;5089589;28;20202;-51
2020/12/08 05:32:50;;;;;;;2.25;2.05;;;;;;;;;;5081407;28;20182;-51
2020/12/08 05:35:17;;;;;;;3.28;2.53;;;;;;;;;;5077393;28;20174;-51
2020/12/08 05:37:45;;;;;;;3.38;2.72;;;;;;;;;;5089270;28;20199;-51
2020/12/08 05:40:11;;;;;;;4.25;2.50;;;;;;;;;;5098020;28;20414;-51
2020/12/08 05:42:41;;;;;;;4.55;2.55;;;;;;;;;;5097644;28;20184;-51
2020/12/08 05:45:11;;;;;;;4.70;2.55;;;;;;;;;;5096663;28;20216;-51
2020/12/08 05:47:44;;;;;;;4.00;2.75;;;;;;;;;;5087687;28;20220;-51
2020/12/08 05:50:10;;;;;;;4.78;2.67;;;;;;;;;;5096019;28;20247;-51
2020/12/08 05:52:39;;;;;;;5.70;3.03;;;;;;;;;;5097600;28;20189;-51
2020/12/08 05:55:15;;;;;;;4.05;2.80;;;;;;;;;;5097457;28;20261;-51
2020/12/08 05:57:41;;;;;;;6.50;3.00;;;;;;;;;;5083330;28;20227;-51
2020/12/08 06:00:08;;;;;;;5.68;2.78;;;;;;;;;;5089916;28;20201;-51
2020/12/08 06:02:35;;;;;;;6.20;2.70;;;;;;;;;;5089828;28;20184;-51
2020/12/08 06:05:01;;;;;;;4.80;3.00;;;;;;;;;;5076924;28;20190;-51
2020/12/08 06:07:31;;;;;;;5.65;2.88;;;;;;;;;;5089969;28;20254;-51
2020/12/08 06:10:10;;;;;;;4.97;2.90;;;;;;;;;;5077183;28;20182;-51
2020/12/08 06:12:37;;;;;;;6.25;3.30;;;;;;;;;;5080508;28;20518;-51
2020/12/08 06:15:25;;;;;;;4.68;3.22;;;;;;;;;;5095316;28;20204;-51
2020/12/08 06:17:51;;;;;;;7.13;3.00;;;;;;;;;;5085786;28;20174;-51
2020/12/08 06:20:17;;;;;;;4.50;2.97;;;;;;;;;;5097432;28;20166;-51
2020/12/08 06:22:53;;;;;;;4.88;3.00;;;;;;;;;;5096697;28;20220;-51
2020/12/08 06:25:19;;;;;;;5.25;3.00;;;;;;;;;;5096028;28;20157;-51
2020/12/08 06:27:45;;;;;;;4.82;2.88;;;;;;;;;;5084642;28;20190;-51
2020/12/08 06:30:11;;;;;;;5.20;2.92;;;;;;;;;;5076767;28;20293;-51
2020/12/08 06:32:37;;;;;;;5.57;2.72;;;;;;;;;;5076853;28;20175;-51
2020/12/08 06:35:08;;;;;;;3.60;2.80;;;;;;;;;;5087002;28;20552;-51
2020/12/08 06:37:34;;;;;;;5.00;2.70;;;;;;;;;;5082662;28;20419;-51
2020/12/08 06:40:07;;;;;;;4.05;2.95;;;;;;;;;;5095729;28;20178;-51
2020/12/08 06:42:33;;;;;;;3.72;2.80;;;;;;;;;;5095146;28;20204;-51
2020/12/08 06:45:09;;;;;;;3.45;2.50;;;;;;;;;;5083377;28;20255;-51
2020/12/08 06:47:35;;;;;;;6.38;2.97;;;;;;;;;;5080251;28;20194;-51
2020/12/08 06:50:01;;;;;;;5.68;3.20;;;;;;;;;;5076653;28;20172;-51
2020/12/08 06:52:27;;;;;;;5.18;3.28;;;;;;;;;;5076018;28;20211;-51
2020/12/08 06:54:57;;;;;;;3.25;2.95;;;;;;;;;;5081549;28;20185;-51
2020/12/08 06:57:23;;;;;;;3.85;3.08;;;;;;;;;;5076489;28;20581;-51
2020/12/08 06:59:49;;;;;;;4.45;2.90;;;;;;;;;;5076582;28;20205;-51
2020/12/08 07:02:15;;;;;;;3.30;3.00;;;;;;;;;;5093859;28;20186;-51
2020/12/08 07:04:41;;;;;;;4.25;3.20;;;;;;;;;;5088329;28;20213;-51
2020/12/08 07:07:08;;;;;;;3.17;2.67;;;;;;;;;;5079378;28;20182;-51
2020/12/08 07:09:34;;;;;;;5.78;3.33;;;;;;;;;;5096745;28;20162;-51
2020/12/08 07:12:01;;;;;;;2.90;2.60;;;;;;;;;;5096368;28;20173;-51
2020/12/08 07:14:28;;;;;;;5.30;3.35;;;;;;;;;;5085237;28;20178;-51
2020/12/08 07:16:55;;;;;;;3.92;2.97;;;;;;;;;;5088151;28;20170;-51
2020/12/08 07:19:21;;;;;;;3.28;2.90;;;;;;;;;;5100552;28;20184;-51
2020/12/08 07:22:00;;;;;;;3.70;3.03;;;;;;;;;;5099637;28;20182;-51
2020/12/08 07:24:27;;;;;;;3.55;2.90;;;;;;;;;;5079718;28;20198;-51
2020/12/08 07:27:00;;;;;;;5.10;3.50;;;;;;;;;;5080524;28;20557;-51
2020/12/08 07:29:26;;;;;;;3.83;3.17;;;;;;;;;;5092136;28;20172;-51
2020/12/08 07:31:53;;;;;;;3.50;3.20;;;;;;;;;;5084056;28;20180;-51
2020/12/08 07:34:18;;;;;;;4.88;3.67;;;;;;;;;;5090492;28;20182;-51
2020/12/08 07:36:45;;;;;;;5.68;3.30;;;;;;;;;;5099957;28;20299;-51
2020/12/08 07:39:18;;;;;;;3.47;3.15;;;;;;;;;;5100245;28;20174;-51
2020/12/08 07:41:44;;;;;;;3.10;2.80;;;;;;;;;;5094049;28;20300;-51
2020/12/08 07:44:14;;;;;;;3.50;2.80;;;;;;;;;;5080940;28;20469;-51
2020/12/08 07:46:48;;;;;;;4.10;3.00;;;;;;;;;;5100899;28;20165;-51
2020/12/08 07:49:14;;;;;;;4.82;3.10;;;;;;;;;;5087719;28;20623;-51
2020/12/08 07:51:40;;;;;;;3.85;3.50;;;;;;;;;;5099730;28;20256;-51
2020/12/08 07:54:07;;;;;;;3.05;2.75;;;;;;;;;;5080325;28;20197;-51
2020/12/08 07:56:34;;;;;;;4.00;3.25;;;;;;;;;;5080023;28;20170;-51
2020/12/08 07:59:01;;;;;;;3.40;3.10;;;;;;;;;;5079920;28;20210;-51
2020/12/08 08:01:27;;;;;;;3.60;3.20;;;;;;;;;;5096975;28;20189;-51
2020/12/08 08:03:53;;;;;;;4.05;3.33;;;;;;;;;;5097342;28;20807;-51
2020/12/08 08:06:20;;;;;;;3.40;3.10;;;;;;;;;;5099537;28;20158;-51
2020/12/08 08:08:49;;;;;;;4.55;3.40;;;;;;;;;;5099587;28;20170;-51
2020/12/08 08:11:16;;;;;;;3.22;3.00;;;;;;;;;;5088121;28;20187;-51
2020/12/08 08:13:42;;;;;;;3.60;3.30;;;;;;;;;;5081226;28;20194;-51
2020/12/08 08:16:12;;;;;;;4.28;3.40;;;;;;;;;;5097851;28;20459;-51
2020/12/08 08:18:38;;;;;;;3.50;3.20;;;;;;;;;;5094906;28;20189;-51
2020/12/08 08:21:04;;;;;;;3.83;2.97;;;;;;;;;;5099218;28;20170;-51
2020/12/08 08:23:30;;;;;;;3.35;3.05;;;;;;;;;;5098880;28;20205;-51
2020/12/08 08:25:56;;;;;;;3.88;3.33;;;;;;;;;;5098542;28;20494;-50
2020/12/08 08:28:23;;;;;;;3.65;3.35;;;;;;;;;;5099186;28;20177;-50
2020/12/08 08:30:49;;;;;;;5.20;3.47;;;;;;;;;;5099672;28;20157;-51
2020/12/08 08:33:15;;;;;;;4.03;3.35;;;;;;;;;;5103982;28;20530;-50
2020/12/08 08:35:41;;;;;;;4.03;3.63;;;;;;;;;;5098823;28;20553;-51
2020/12/08 08:38:07;;;;;;;3.63;3.13;;;;;;;;;;5099337;28;20264;-51
2020/12/08 08:40:34;;;;;;;3.90;3.47;;;;;;;;;;5099413;28;20180;-51
2020/12/08 08:43:00;;;;;;;4.70;3.55;;;;;;;;;;5098141;28;20173;-52
2020/12/08 08:45:26;;;;;;;4.00;3.60;;;;;;;;;;5090028;28;20243;-51
2020/12/08 08:47:53;;;;;;;3.65;3.35;;;;;;;;;;5090386;28;20194;-51
2020/12/08 08:50:19;;;;;;;4.10;3.70;;;;;;;;;;5090455;28;20173;-51
2020/12/08 08:52:45;;;;;;;4.07;3.65;;;;;;;;;;5098654;28;20188;-51
2020/12/08 08:55:11;;;;;;;4.28;3.88;;;;;;;;;;5097008;28;20185;-51
2020/12/08 08:57:38;;;;;;;4.82;4.05;;;;;;;;;;5097991;28;20198;-51
2020/12/08 09:00:08;;;;;;;5.53;3.85;;;;;;;;;;5098796;28;20556;-51
2020/12/08 09:02:35;;;;;;;4.25;3.85;;;;;;;;;;5098681;28;20228;-51
2020/12/08 09:05:01;;;;;;;4.40;4.00;;;;;;;;;;5098198;28;20252;-51
2020/12/08 09:07:29;;;;;;;6.15;4.10;;;;;;;;;;5098607;28;20159;-51
2020/12/08 09:09:55;;;;;;;6.13;4.10;;;;;;;;;;5098495;28;20492;-51
2020/12/08 09:12:21;;;;;;;4.68;4.28;;;;;;;;;;5098217;28;20261;-51
2020/12/08 09:14:48;;;;;;;4.90;4.40;;;;;;;;;;5097504;28;20162;-51
2020/12/08 09:17:14;;;;;;;4.68;4.25;;;;;;;;;;5098482;28;20165;-51
2020/12/08 09:19:40;;;;;;;5.60;4.50;;;;;;;;;;5098525;28;20216;-51
2020/12/08 09:22:06;;;;;;;5.18;4.68;;;;;;;;;;5098267;28;20166;-51
2020/12/08 09:24:33;;;;;;;6.13;4.93;;;;;;;;;;5097526;28;20201;-51
2020/12/08 09:26:59;;;;;;;6.35;4.32;;;;;;;;;;5098173;28;20176;-51
2020/12/08 09:29:25;;;;;;;5.13;4.47;;;;;;;;;;5097759;28;20161;-51
2020/12/08 09:31:55;;;;;;;5.53;5.03;;;;;;;;;;5098242;28;20166;-51
2020/12/08 09:34:21;;;;;;;5.13;4.45;;;;;;;;;;5092784;28;20183;-51
2020/12/08 09:36:53;;;;;;;6.57;4.65;;;;;;;;;;5076987;28;20249;-51
2020/12/08 09:39:20;;;;;;;5.93;5.32;;;;;;;;;;5080550;28;20184;-51
2020/12/08 09:41:46;;;;;;;6.25;5.22;;;;;;;;;;5095646;28;20265;-51
2020/12/08 09:44:12;;;;;;;7.03;5.20;;;;;;;;;;5085882;28;20241;-51
2020/12/08 09:46:39;;;;;;;5.40;4.82;;;;;;;;;;5080182;28;20557;-51
2020/12/08 09:49:05;;;;;;;5.45;4.78;;;;;;;;;;5090923;28;20261;-51
2020/12/08 09:51:31;;;;;;;5.43;4.93;;;;;;;;;;5087803;28;20214;-51
2020/12/08 09:53:58;;;;;;;5.25;4.75;;;;;;;;;;5076240;28;20175;-51
2020/12/08 09:56:24;;;;;;;5.30;4.80;;;;;;;;;;5077186;28;20438;-51
2020/12/08 09:58:51;;;;;;;5.80;5.20;;;;;;;;;;5077584;28;20197;-51
2020/12/08 10:01:24;;;;;;;5.47;4.97;;;;;;;;;;5077220;28;20438;-51
2020/12/08 10:03:50;;;;;;;5.40;4.90;;;;;;;;;;5077398;28;20222;-51
2020/12/08 10:06:16;;;;;;;6.10;5.10;;;;;;;;;;5076545;28;20580;-51
2020/12/08 10:08:42;;;;;;;5.18;4.68;;;;;;;;;;5077415;28;20171;-51
2020/12/08 10:11:09;;;;;;;5.40;4.90;;;;;;;;;;5077231;28;20162;-51
2020/12/08 10:13:35;;;;;;;5.97;4.75;;;;;;;;;;5077061;28;20541;-51
2020/12/08 10:16:01;;;;;;;5.13;4.63;;;;;;;;;;5076135;28;20216;-51
2020/12/08 10:18:27;;;;;;;6.38;4.82;;;;;;;;;;5077161;28;20499;-51
2020/12/08 10:20:53;;;;;;;5.55;5.00;;;;;;;;;;5076765;28;20329;-51
2020/12/08 10:23:19;;;;;;;5.65;5.00;;;;;;;;;;5090334;28;20251;-51
2020/12/08 10:25:45;;;;;;;5.00;4.53;;;;;;;;;;5080875;28;20218;-51
2020/12/08 10:28:11;;;;;;;6.07;4.85;;;;;;;;;;5097035;28;20236;-51
2020/12/08 10:30:37;;;;;;;5.32;4.82;;;;;;;;;;5093568;28;20163;-51
2020/12/08 10:33:03;;;;;;;6.20;5.15;;;;;;;;;;5078079;28;20178;-51
2020/12/08 10:35:29;;;;;;;6.72;5.15;;;;;;;;;;5086859;28;20480;-51
2020/12/08 10:37:55;;;;;;;5.28;4.78;;;;;;;;;;5086648;28;20179;-51
2020/12/08 10:40:21;;;;;;;5.45;4.95;;;;;;;;;;5090390;28;20170;-52
2020/12/08 10:42:47;;;;;;;5.80;5.10;;;;;;;;;;5095753;28;20174;-51
2020/12/08 10:45:13;;;;;;;5.85;5.22;;;;;;;;;;5094794;28;20188;-50
2020/12/08 10:47:39;;;;;;;5.75;4.90;;;;;;;;;;5106446;28;20590;-50
2020/12/08 10:50:05;;;;;;;5.70;5.03;;;;;;;;;;5116780;28;20241;-51
2020/12/08 10:52:31;;;;;;;5.53;5.03;;;;;;;;;;5082876;28;20321;-51
2020/12/08 10:54:57;;;;;;;5.32;4.82;;;;;;;;;;5075987;28;20233;-51
2020/12/08 10:57:23;;;;;;;6.68;4.97;;;;;;;;;;5076662;28;20198;-51
2020/12/08 10:59:49;;;;;;;5.47;4.97;;;;;;;;;;5088638;28;20174;-51
2020/12/08 11:02:15;;;;;;;7.43;5.68;;;;;;;;;;5092219;28;20192;-51
2020/12/08 11:04:42;;;;;;;9.75;6.55;;;;;;;;;;5077790;28;20198;-51
2020/12/08 11:07:07;;;;;;;11.85;7.07;;;;;;;;;;5095057;28;20545;-51
2020/12/08 11:09:33;;;;;;;11.63;6.95;;;;;;;;;;5096809;28;20176;-51
2020/12/08 11:11:59;;;;;;;10.70;6.28;;;;;;;;;;5089455;28;20232;-51
2020/12/08 11:14:28;;;;;;;8.88;6.38;;;;;;;;;;5095078;28;20189;-51
2020/12/08 11:16:54;;;;;;;11.23;6.38;;;;;;;;;;5093439;28;20166;-51
2020/12/08 11:19:20;;;;;;;9.23;5.75;;;;;;;;;;5094983;28;20586;-51
2020/12/08 11:21:46;;;;;;;8.48;5.85;;;;;;;;;;5096638;28;20209;-51
2020/12/08 11:24:12;;;;;;;9.93;6.60;;;;;;;;;;5077204;28;20309;-51
2020/12/08 11:26:38;;;;;;;11.40;6.07;;;;;;;;;;5075734;28;20167;-51
2020/12/08 11:29:05;;;;;;;11.52;6.15;;;;;;;;;;5076435;28;20468;-51
2020/12/08 11:31:31;;;;;;;7.05;5.72;;;;;;;;;;5076490;28;20186;-51
2020/12/08 11:33:57;;;;;;;10.57;6.80;;;;;;;;;;5075489;28;20844;-51
2020/12/08 11:36:23;;;;;;;9.32;6.35;;;;;;;;;;5076110;28;20254;-51
2020/12/08 11:38:49;;;;;;;8.57;6.20;;;;;;;;;;5059255;28;20609;-51
2020/12/08 11:41:15;;;;;;;8.98;6.35;;;;;;;;;;5071851;28;20185;-51
2020/12/08 11:43:42;;;;;;;8.93;6.30;;;;;;;;;;5074175;28;20195;-51
2020/12/08 11:46:11;;;;;;;8.00;5.53;;;;;;;;;;5074935;28;20262;-51
2020/12/08 11:48:37;;;;;;;9.70;6.60;;;;;;;;;;5067816;28;20175;-51
2020/12/08 11:51:03;;;;;;;7.47;6.05;;;;;;;;;;5074768;28;20204;-51
2020/12/08 11:53:29;;;;;;;7.55;5.93;;;;;;;;;;5076123;28;20197;-51
2020/12/08 11:55:55;;;;;;;8.48;5.95;;;;;;;;;;5064532;28;20234;-51
2020/12/08 11:58:21;;;;;;;7.35;5.75;;;;;;;;;;5075199;28;20217;-51
2020/12/08 12:00:47;;;;;;;9.98;6.22;;;;;;;;;;5077046;28;20194;-51
2020/12/08 12:03:13;;;;;;;6.82;5.10;;;;;;;;;;5079178;28;20288;-52
2020/12/08 12:05:39;;;;;;;9.00;5.47;;;;;;;;;;5079167;28;20171;-52
2020/12/08 12:08:06;;;;;;;9.32;5.80;;;;;;;;;;5073611;28;20250;-52
2020/12/08 12:10:32;;;;;;;8.63;5.93;;;;;;;;;;5079494;28;20220;-52
2020/12/08 12:12:57;;;;;;;9.25;5.85;;;;;;;;;;5069616;28;20216;-52
2020/12/08 12:15:23;;;;;;;7.20;5.32;;;;;;;;;;5067536;28;20187;-52
2020/12/08 12:17:49;;;;;;;7.97;5.38;;;;;;;;;;5078428;28;20198;-52
2020/12/08 12:20:16;;;;;;;9.25;5.28;;;;;;;;;;5078824;28;20470;-52
2020/12/08 12:22:42;;;;;;;9.52;5.43;;;;;;;;;;5070932;28;20202;-51
2020/12/08 12:25:08;;;;;;;7.70;5.05;;;;;;;;;;5065681;28;20203;-51
2020/12/08 12:27:34;;;;;;;7.60;5.15;;;;;;;;;;5075359;28;20181;-51
2020/12/08 12:30:00;;;;;;;7.57;5.45;;;;;;;;;;5078681;28;20304;-51
2020/12/08 12:32:26;;;;;;;5.65;4.88;;;;;;;;;;5073267;28;20689;-51
2020/12/08 12:34:52;;;;;;;7.30;4.82;;;;;;;;;;5058212;28;20277;-52
2020/12/08 12:37:18;;;;;;;10.10;5.38;;;;;;;;;;5068423;28;20174;-52
2020/12/08 12:39:44;;;;;;;8.27;5.65;;;;;;;;;;5076381;28;20193;-52
2020/12/08 12:42:10;;;;;;;7.68;5.18;;;;;;;;;;5077320;28;20170;-51
2020/12/08 12:44:36;;;;;;;7.47;5.38;;;;;;;;;;5077129;28;20187;-51
2020/12/08 12:47:02;;;;;;;6.80;5.07;;;;;;;;;;5078566;28;20175;-51
2020/12/08 12:49:28;;;;;;;6.60;4.85;;;;;;;;;;5078672;28;20171;-51
2020/12/08 12:51:55;;;;;;;7.78;5.60;;;;;;;;;;5078713;28;20173;-51
2020/12/08 12:54:21;;;;;;;7.75;5.40;;;;;;;;;;5087019;28;20166;-51
2020/12/08 12:56:48;;;;;;;8.15;4.70;;;;;;;;;;5078199;28;20198;-51
2020/12/08 12:59:14;;;;;;;6.88;4.82;;;;;;;;;;5078310;28;20179;-51
2020/12/08 13:01:40;;;;;;;5.82;4.90;;;;;;;;;;5078709;28;20166;-51
2020/12/08 13:04:06;;;;;;;6.47;5.35;;;;;;;;;;5077965;28;20688;-51
2020/12/08 13:06:32;;;;;;;5.35;4.78;;;;;;;;;;5078470;28;20209;-51
2020/12/08 13:08:58;;;;;;;5.68;4.68;;;;;;;;;;5078463;28;20171;-51
2020/12/08 13:11:25;;;;;;;5.75;4.72;;;;;;;;;;5078000;28;20181;-51
2020/12/08 13:13:52;;;;;;;7.22;5.25;;;;;;;;;;5072277;28;20565;-51
2020/12/08 13:16:18;;;;;;;6.43;4.53;;;;;;;;;;5077069;28;20174;-52
2020/12/08 13:18:44;;;;;;;4.88;4.38;;;;;;;;;;5078482;28;20633;-52
2020/12/08 13:21:10;;;;;;;6.00;5.20;;;;;;;;;;5078749;28;20218;-52
2020/12/08 13:23:38;;;;;;;5.53;4.90;;;;;;;;;;5089440;28;20296;-52
2020/12/08 13:26:05;;;;;;;6.72;4.60;;;;;;;;;;5098041;28;20169;-52
2020/12/08 13:28:32;;;;;;;5.97;4.68;;;;;;;;;;5097757;28;20447;-52
2020/12/08 13:31:07;;;;;;;4.75;4.32;;;;;;;;;;5098071;28;20180;-52
2020/12/08 13:33:33;;;;;;;5.32;4.80;;;;;;;;;;5098415;28;20177;-52
2020/12/08 13:35:59;;;;;;;6.60;5.25;;;;;;;;;;5096725;28;20173;-52
2020/12/08 13:38:25;;;;;;;5.28;4.43;;;;;;;;;;5095948;28;20460;-52
2020/12/08 13:40:51;;;;;;;6.68;4.72;;;;;;;;;;5092444;28;20268;-52
2020/12/08 13:43:17;;;;;;;6.10;4.95;;;;;;;;;;5097539;28;20212;-51
2020/12/08 13:45:43;;;;;;;5.93;4.97;;;;;;;;;;5097400;28;20166;-51
2020/12/08 13:48:10;;;;;;;6.05;4.38;;;;;;;;;;5087916;28;20179;-51
2020/12/08 13:50:36;;;;;;;6.07;4.47;;;;;;;;;;5093888;28;20182;-51
2020/12/08 13:53:02;;;;;;;5.82;4.10;;;;;;;;;;5097786;28;20180;-51
2020/12/08 13:55:28;;;;;;;7.55;4.63;;;;;;;;;;5096591;28;20177;-51
2020/12/08 13:57:54;;;;;;;5.80;4.35;;;;;;;;;;5086562;28;20448;-51
2020/12/08 14:00:20;;;;;;;5.40;4.90;;;;;;;;;;5077594;28;20262;-51
2020/12/08 14:02:46;;;;;;;7.35;4.65;;;;;;;;;;5085376;28;20182;-52
2020/12/08 14:05:13;;;;;;;5.60;4.68;;;;;;;;;;5087627;28;20216;-52
2020/12/08 14:07:39;;;;;;;6.25;4.70;;;;;;;;;;5090154;28;20208;-52
2020/12/08 14:10:06;;;;;;;5.47;4.30;;;;;;;;;;5083793;28;20172;-52
2020/12/08 14:12:32;;;;;;;4.88;4.38;;;;;;;;;;5096489;28;20181;-52
2020/12/08 14:14:58;;;;;;;37.83;11.48;;;;;;;;;;5095153;28;20184;-52
2020/12/08 14:17:24;;;;;;;49.50;15.65;;;;;;;;;;5095307;28;20453;-52
2020/12/08 14:19:51;;;;;;;42.80;13.73;;;;;;;;;;5093226;28;20185;-52
2020/12/08 14:22:17;;;;;;;39.63;14.27;;;;;;;;;;5087379;28;20585;-52
2020/12/08 14:24:43;;;;;;;48.00;14.65;;;;;;;;;;5095723;28;20280;-52
2020/12/08 14:27:10;;;;;;;43.55;13.98;;;;;;;;;;5090454;28;20568;-52
2020/12/08 14:29:36;;;;;;;41.85;14.57;;;;;;;;;;5096781;28;20177;-52
2020/12/08 14:32:02;;;;;;;44.90;15.02;;;;;;;;;;5091967;28;20201;-52
2020/12/08 14:34:28;;;;;;;53.85;17.25;;;;;;;;;;5095330;28;20542;-52
2020/12/08 14:36:54;;;;;;;57.05;16.50;;;;;;;;;;5096052;28;20193;-52
2020/12/08 14:39:20;;;;;;;48.25;15.90;;;;;;;;;;5096468;28;20181;-52